createdAt,value
2022-08-25T00:00:03.715Z,9.719584
2022-08-25T00:01:03.711Z,9.719591
2022-08-25T00:02:03.693Z,9.719630
2022-08-25T00:03:03.740Z,9.719713
2022-08-25T00:04:03.680Z,9.719698
2022-08-25T00:05:03.722Z,9.719690
2022-08-25T00:06:03.671Z,9.719728
2022-08-25T00:07:03.654Z,9.719771
2022-08-25T00:08:03.816Z,9.719649
2022-08-25T00:09:03.633Z,9.719604
2022-08-25T00:10:03.620Z,9.719592
2022-08-25T00:11:03.792Z,9.719605
2022-08-25T00:12:03.611Z,9.719576
2022-08-25T00:13:03.634Z,9.719559
2022-08-25T00:14:03.587Z,9.719570
2022-08-25T00:15:03.572Z,9.719591
2022-08-25T00:16:03.655Z,9.719606
2022-08-25T00:17:03.555Z,9.719589
2022-08-25T00:18:03.682Z,9.719589
2022-08-25T00:19:04.542Z,9.719577
2022-08-25T00:20:03.529Z,9.719600
2022-08-25T00:21:03.535Z,9.719592
2022-08-25T00:22:03.502Z,9.719580
2022-08-25T00:23:03.501Z,9.719587
2022-08-25T00:24:03.487Z,9.719613
2022-08-25T00:25:03.474Z,9.719599
2022-08-25T00:26:03.483Z,9.719586
2022-08-25T00:27:03.459Z,9.719581
2022-08-25T00:28:08.234Z,9.719578
2022-08-25T00:29:04.438Z,9.719576
2022-08-25T00:30:03.430Z,9.719578
2022-08-25T00:31:03.484Z,9.719601
2022-08-25T00:32:03.568Z,9.719595
2022-08-25T00:33:03.404Z,9.719586
2022-08-25T00:34:03.389Z,9.719588
2022-08-25T00:35:03.383Z,9.719594
2022-08-25T00:36:03.401Z,9.719579
2022-08-25T00:37:03.363Z,9.719547
2022-08-25T00:38:03.442Z,9.719601
2022-08-25T00:39:03.348Z,9.719619
2022-08-25T00:40:03.390Z,9.719589
2022-08-25T00:41:03.377Z,9.719600
2022-08-25T00:42:03.310Z,9.719615
2022-08-25T00:43:03.479Z,9.719640
2022-08-25T00:44:03.293Z,9.719585
2022-08-25T00:45:03.298Z,9.719600
2022-08-25T00:46:03.333Z,9.719637
2022-08-25T00:47:03.270Z,9.719642
2022-08-25T00:48:03.418Z,9.719636
2022-08-25T00:49:03.248Z,9.719617
2022-08-25T00:50:03.234Z,9.719613
2022-08-25T00:51:03.244Z,9.719583
2022-08-25T00:52:03.217Z,9.719610
2022-08-25T00:53:03.209Z,9.719609
2022-08-25T00:54:03.197Z,9.719614
2022-08-25T00:55:07.876Z,9.719610
2022-08-25T00:56:04.192Z,9.719569
2022-08-25T00:57:03.167Z,9.719537
2022-08-25T00:58:03.259Z,9.719560
2022-08-25T00:59:03.148Z,9.719561
2022-08-25T01:00:03.137Z,9.719644
2022-08-25T01:01:03.198Z,9.719649
2022-08-25T01:02:03.116Z,9.719625
2022-08-25T01:03:03.155Z,9.719627
2022-08-25T01:04:03.099Z,9.719639
2022-08-25T01:05:03.089Z,9.719662
2022-08-25T01:06:03.082Z,9.719646
2022-08-25T01:07:03.063Z,9.719655
2022-08-25T01:08:03.173Z,9.719628
2022-08-25T01:09:03.053Z,9.719588
2022-08-25T01:10:03.037Z,9.719598
2022-08-25T01:11:03.061Z,9.719602
2022-08-25T01:12:03.019Z,9.719603
2022-08-25T01:13:03.010Z,9.719582
2022-08-25T01:14:03.012Z,9.719607
2022-08-25T01:15:02.991Z,9.719635
2022-08-25T01:16:03.061Z,9.719666
2022-08-25T01:17:03.095Z,9.719653
2022-08-25T01:18:03.053Z,9.719668
2022-08-25T01:19:02.973Z,9.719664
2022-08-25T01:20:02.994Z,9.719658
2022-08-25T01:21:02.944Z,9.719673
2022-08-25T01:22:02.916Z,9.719667
2022-08-25T01:23:02.911Z,9.719721
2022-08-25T01:24:02.894Z,9.719636
2022-08-25T01:25:02.899Z,9.719679
2022-08-25T01:26:02.892Z,9.719676
2022-08-25T01:27:02.884Z,9.719643
2022-08-25T01:28:03.111Z,9.719630
2022-08-25T01:29:02.919Z,9.719637
2022-08-25T01:30:02.882Z,9.719662
2022-08-25T01:31:02.891Z,9.719658
2022-08-25T01:32:02.818Z,9.719654
2022-08-25T01:33:02.855Z,9.719656
2022-08-25T01:34:02.815Z,9.719690
2022-08-25T01:35:02.877Z,9.719686
2022-08-25T01:36:02.804Z,9.719704
2022-08-25T01:37:02.775Z,9.719743
2022-08-25T01:38:02.851Z,9.719790
2022-08-25T01:39:02.755Z,9.719744
2022-08-25T01:40:02.797Z,9.719717
2022-08-25T01:41:02.751Z,9.719718
2022-08-25T01:42:02.727Z,9.719677
2022-08-25T01:43:02.716Z,9.719566
2022-08-25T01:44:02.700Z,9.719540
2022-08-25T01:45:02.692Z,9.719650
2022-08-25T01:46:02.777Z,9.719559
2022-08-25T01:47:02.681Z,9.719700
2022-08-25T01:48:02.711Z,9.719664
2022-08-25T01:49:06.595Z,9.719648
2022-08-25T01:50:02.660Z,9.719711
2022-08-25T01:51:02.655Z,9.719641
2022-08-25T01:52:02.628Z,9.719610
2022-08-25T01:53:02.621Z,9.719647
2022-08-25T01:54:02.616Z,9.719646
2022-08-25T01:55:02.604Z,9.719650
2022-08-25T01:56:03.777Z,9.719677
2022-08-25T01:57:02.581Z,9.719646
2022-08-25T01:58:02.676Z,9.719635
2022-08-25T01:59:02.566Z,9.719739
2022-08-25T02:00:02.549Z,9.719721
2022-08-25T02:01:02.592Z,9.719682
2022-08-25T02:02:02.531Z,9.719696
2022-08-25T02:03:02.611Z,9.719681
2022-08-25T02:04:02.511Z,9.719634
2022-08-25T02:05:02.497Z,9.719652
2022-08-25T02:06:04.193Z,9.719650
2022-08-25T02:07:02.484Z,9.719649
2022-08-25T02:08:02.481Z,9.719658
2022-08-25T02:09:02.465Z,9.719662
2022-08-25T02:10:03.505Z,9.719658
2022-08-25T02:11:02.458Z,9.719660
2022-08-25T02:12:02.435Z,9.719653
2022-08-25T02:13:02.427Z,9.719688
2022-08-25T02:14:02.663Z,9.719664
2022-08-25T02:15:02.402Z,9.719687
2022-08-25T02:16:02.444Z,9.719676
2022-08-25T02:17:02.440Z,9.719617
2022-08-25T02:18:02.370Z,9.719651
2022-08-25T02:19:02.598Z,9.719639
2022-08-25T02:20:02.357Z,9.719648
2022-08-25T02:21:02.483Z,9.719604
2022-08-25T02:22:02.336Z,9.719602
2022-08-25T02:23:02.331Z,9.719594
2022-08-25T02:24:02.315Z,9.719637
2022-08-25T02:25:02.310Z,9.719629
2022-08-25T02:26:02.315Z,9.719645
2022-08-25T02:27:02.293Z,9.719613
2022-08-25T02:28:02.352Z,9.719579
2022-08-25T02:29:02.271Z,9.719614
2022-08-25T02:30:02.263Z,9.719575
2022-08-25T02:31:02.282Z,9.719596
2022-08-25T02:32:02.242Z,9.719667
2022-08-25T02:33:02.238Z,9.719665
2022-08-25T02:34:02.223Z,9.719686
2022-08-25T02:35:02.215Z,9.719643
2022-08-25T02:36:02.212Z,9.719633
2022-08-25T02:37:02.201Z,9.719672
2022-08-25T02:38:02.185Z,9.719673
2022-08-25T02:39:02.172Z,9.719644
2022-08-25T02:40:02.223Z,9.719680
2022-08-25T02:41:02.174Z,9.719680
2022-08-25T02:42:02.149Z,9.719698
2022-08-25T02:43:02.140Z,9.719605
2022-08-25T02:44:02.130Z,9.719609
2022-08-25T02:45:02.111Z,9.719606
2022-08-25T02:46:02.188Z,9.719630
2022-08-25T02:47:02.110Z,9.719622
2022-08-25T02:48:02.131Z,9.719680
2022-08-25T02:49:02.076Z,9.719676
2022-08-25T02:50:02.069Z,9.719573
2022-08-25T02:51:02.055Z,9.719643
2022-08-25T02:52:02.071Z,9.719721
2022-08-25T02:53:02.037Z,9.719650
2022-08-25T02:54:02.038Z,9.719644
2022-08-25T02:55:02.018Z,9.719642
2022-08-25T02:56:02.008Z,9.719565
2022-08-25T02:57:02.007Z,9.719560
2022-08-25T02:58:02.006Z,9.719590
2022-08-25T02:59:01.976Z,9.719646
2022-08-25T03:00:01.977Z,9.719620
2022-08-25T03:01:01.987Z,9.719604
2022-08-25T03:02:01.965Z,9.719581
2022-08-25T03:03:01.938Z,9.719581
2022-08-25T03:04:01.963Z,9.719601
2022-08-25T03:05:01.986Z,9.719620
2022-08-25T03:06:01.923Z,9.719616
2022-08-25T03:07:01.906Z,9.719619
2022-08-25T03:08:01.938Z,9.719602
2022-08-25T03:09:01.879Z,9.719583
2022-08-25T03:10:01.865Z,9.719564
2022-08-25T03:11:02.126Z,9.719567
2022-08-25T03:12:01.847Z,9.719558
2022-08-25T03:13:01.838Z,9.719564
2022-08-25T03:14:01.832Z,9.719589
2022-08-25T03:15:02.088Z,9.719563
2022-08-25T03:16:02.996Z,9.719670
2022-08-25T03:17:01.814Z,9.719646
2022-08-25T03:18:01.818Z,9.719543
2022-08-25T03:19:01.775Z,9.719530
2022-08-25T03:20:01.768Z,9.719547
2022-08-25T03:21:01.753Z,9.719676
2022-08-25T03:22:01.772Z,9.719651
2022-08-25T03:23:01.740Z,9.719616
2022-08-25T03:24:01.736Z,9.719644
2022-08-25T03:25:01.720Z,9.719582
2022-08-25T03:26:01.864Z,9.719560
2022-08-25T03:27:01.715Z,9.719541
2022-08-25T03:28:01.733Z,9.719524
2022-08-25T03:29:01.675Z,9.719572
2022-08-25T03:30:01.681Z,9.719598
2022-08-25T03:31:01.682Z,9.719618
2022-08-25T03:32:01.723Z,9.719670
2022-08-25T03:33:01.643Z,9.719699
2022-08-25T03:34:01.634Z,9.719688
2022-08-25T03:35:01.624Z,9.719687
2022-08-25T03:36:01.626Z,9.719682
2022-08-25T03:37:01.606Z,9.719592
2022-08-25T03:38:01.646Z,9.719598
2022-08-25T03:39:01.585Z,9.719588
2022-08-25T03:40:01.597Z,9.719638
2022-08-25T03:41:01.576Z,9.719628
2022-08-25T03:42:01.556Z,9.719635
2022-08-25T03:43:01.551Z,9.719643
2022-08-25T03:44:01.541Z,9.719644
2022-08-25T03:45:01.663Z,9.719546
2022-08-25T03:46:01.586Z,9.719565
2022-08-25T03:47:01.508Z,9.719562
2022-08-25T03:48:01.518Z,9.719573
2022-08-25T03:49:01.489Z,9.719611
2022-08-25T03:50:01.477Z,9.719637
2022-08-25T03:51:01.471Z,9.719630
2022-08-25T03:52:01.479Z,9.719615
2022-08-25T03:53:01.452Z,9.719648
2022-08-25T03:54:01.544Z,9.719637
2022-08-25T03:55:01.429Z,9.719677
2022-08-25T03:56:01.423Z,9.719651
2022-08-25T03:57:01.628Z,9.719755
2022-08-25T03:58:01.444Z,9.719528
2022-08-25T03:59:01.391Z,9.719633
2022-08-25T04:00:01.484Z,9.719599
2022-08-25T04:01:01.414Z,9.719629
2022-08-25T04:02:01.576Z,9.719723
2022-08-25T04:03:01.467Z,9.719784
2022-08-25T04:04:01.356Z,9.719711
2022-08-25T04:05:01.417Z,9.719550
2022-08-25T04:06:01.530Z,9.719570
2022-08-25T04:07:01.335Z,9.719591
2022-08-25T04:08:01.634Z,9.719643
2022-08-25T04:09:01.436Z,9.719621
2022-08-25T04:10:01.297Z,9.719595
2022-08-25T04:11:01.282Z,9.719627
2022-08-25T04:12:01.530Z,9.719620
2022-08-25T04:13:01.257Z,9.719606
2022-08-25T04:14:01.251Z,9.719594
2022-08-25T04:15:01.270Z,9.719599
2022-08-25T04:16:01.236Z,9.719605
2022-08-25T04:17:01.285Z,9.719612
2022-08-25T04:18:01.246Z,9.719621
2022-08-25T04:19:01.197Z,9.719619
2022-08-25T04:20:01.192Z,9.719585
2022-08-25T04:21:01.180Z,9.719628
2022-08-25T04:22:01.186Z,9.719597
2022-08-25T04:23:01.168Z,9.719590
2022-08-25T04:24:01.230Z,9.719624
2022-08-25T04:25:01.149Z,9.719633
2022-08-25T04:26:01.138Z,9.719628
2022-08-25T04:27:01.384Z,9.719629
2022-08-25T04:28:01.185Z,9.719598
2022-08-25T04:29:01.118Z,9.719712
2022-08-25T04:30:01.331Z,9.719715
2022-08-25T04:31:01.149Z,9.719589
2022-08-25T04:32:01.192Z,9.719608
2022-08-25T04:33:01.072Z,9.719513
2022-08-25T04:34:01.061Z,9.719563
2022-08-25T04:35:01.047Z,9.719492
2022-08-25T04:36:01.045Z,9.719573
2022-08-25T04:37:01.042Z,9.719625
2022-08-25T04:38:01.021Z,9.719586
2022-08-25T04:39:01.070Z,9.719624
2022-08-25T04:40:01.036Z,9.719653
2022-08-25T04:41:00.993Z,9.719660
2022-08-25T04:42:01.196Z,9.719533
2022-08-25T04:43:00.963Z,9.719546
2022-08-25T04:44:00.962Z,9.719600
2022-08-25T04:45:00.947Z,9.719738
2022-08-25T04:46:00.987Z,9.719589
2022-08-25T04:47:00.946Z,9.719515
2022-08-25T04:48:00.921Z,9.719489
2022-08-25T04:49:00.908Z,9.719509
2022-08-25T04:50:00.906Z,9.719551
2022-08-25T04:51:00.889Z,9.719469
2022-08-25T04:52:00.899Z,9.719552
2022-08-25T04:53:00.870Z,9.719664
2022-08-25T04:54:00.859Z,9.719698
2022-08-25T04:55:00.851Z,9.719720
2022-08-25T04:56:03.796Z,9.719648
2022-08-25T04:57:00.849Z,9.719594
2022-08-25T04:58:00.824Z,9.719471
2022-08-25T04:59:00.802Z,9.719685
2022-08-25T05:00:00.799Z,9.719579
2022-08-25T05:01:00.827Z,9.719682
2022-08-25T05:02:00.798Z,9.719703
2022-08-25T05:03:00.771Z,9.719683
2022-08-25T05:04:00.795Z,9.719591
2022-08-25T05:05:00.786Z,9.719702
2022-08-25T05:06:00.766Z,9.719501
2022-08-25T05:07:00.742Z,9.719708
2022-08-25T05:08:00.728Z,9.719598
2022-08-25T05:09:00.709Z,9.719627
2022-08-25T05:10:00.709Z,9.719559
2022-08-25T05:11:00.697Z,9.719588
2022-08-25T05:12:00.705Z,9.719586
2022-08-25T05:13:00.678Z,9.719590
2022-08-25T05:14:00.676Z,9.719579
2022-08-25T05:15:00.656Z,9.719624
2022-08-25T05:16:00.729Z,9.719663
2022-08-25T05:17:00.654Z,9.719675
2022-08-25T05:18:00.666Z,9.719710
2022-08-25T05:19:00.616Z,9.719627
2022-08-25T05:20:00.615Z,9.719567
2022-08-25T05:21:00.596Z,9.719544
2022-08-25T05:22:00.607Z,9.719522
2022-08-25T05:23:00.583Z,9.719556
2022-08-25T05:24:00.584Z,9.719555
2022-08-25T05:25:00.636Z,9.719558
2022-08-25T05:26:00.556Z,9.719541
2022-08-25T05:27:00.553Z,9.719537
2022-08-25T05:28:00.582Z,9.719506
2022-08-25T05:29:00.518Z,9.719491
2022-08-25T05:30:00.516Z,9.719556
2022-08-25T05:31:00.564Z,9.719590
2022-08-25T05:32:00.543Z,9.719683
2022-08-25T05:33:00.479Z,9.719792
2022-08-25T05:34:00.489Z,9.719729
2022-08-25T05:35:00.462Z,9.719612
2022-08-25T05:36:00.450Z,9.719749
2022-08-25T05:37:00.507Z,9.719875
2022-08-25T05:38:00.447Z,9.719600
2022-08-25T05:39:00.417Z,9.719721
2022-08-25T05:40:00.464Z,9.719715
2022-08-25T05:41:00.404Z,9.719663
2022-08-25T05:42:00.395Z,9.719652
2022-08-25T05:43:00.397Z,9.719681
2022-08-25T05:44:00.378Z,9.719740
2022-08-25T05:45:00.370Z,9.719648
2022-08-25T05:46:00.411Z,9.719625
2022-08-25T05:47:00.363Z,9.719611
2022-08-25T05:48:00.369Z,9.719585
2022-08-25T05:49:00.460Z,9.719666
2022-08-25T05:50:00.322Z,9.719616
2022-08-25T05:51:00.297Z,9.719646
2022-08-25T05:52:00.297Z,9.719629
2022-08-25T05:53:00.304Z,9.719608
2022-08-25T05:54:00.293Z,9.719646
2022-08-25T05:55:00.400Z,9.719685
2022-08-25T05:56:00.255Z,9.719660
2022-08-25T05:57:00.285Z,9.719633
2022-08-25T05:58:00.281Z,9.719636
2022-08-25T05:59:00.233Z,9.719633
2022-08-25T06:00:00.233Z,9.719639
2022-08-25T06:01:00.338Z,9.719593
2022-08-25T06:02:00.209Z,9.719675
2022-08-25T06:03:00.181Z,9.719683
2022-08-25T06:04:00.225Z,9.719620
2022-08-25T06:05:00.163Z,9.719628
2022-08-25T06:06:00.159Z,9.719693
2022-08-25T06:07:00.158Z,9.719755
2022-08-25T06:08:00.260Z,9.719635
2022-08-25T06:09:00.125Z,9.719717
2022-08-25T06:10:00.137Z,9.719723
2022-08-25T06:11:00.116Z,9.719670
2022-08-25T06:12:00.109Z,9.719657
2022-08-25T06:13:00.093Z,9.719644
2022-08-25T06:14:00.084Z,9.719643
2022-08-25T06:15:00.065Z,9.719671
2022-08-25T06:16:00.100Z,9.719606
2022-08-25T06:17:00.080Z,9.719590
2022-08-25T06:18:01.660Z,9.719700
2022-08-25T06:19:00.039Z,9.719720
2022-08-25T06:20:00.021Z,9.719736
2022-08-25T06:21:00.006Z,9.719723
2022-08-25T06:22:00.021Z,9.719729
2022-08-25T06:22:59.987Z,9.719736
2022-08-25T06:23:59.972Z,9.719697
2022-08-25T06:24:59.965Z,9.719697
2022-08-25T06:25:59.960Z,9.719666
2022-08-25T06:26:59.955Z,9.719671
2022-08-25T06:27:59.958Z,9.719625
2022-08-25T06:28:59.927Z,9.719584
2022-08-25T06:30:04.745Z,9.719600
2022-08-25T06:31:00.920Z,9.719623
2022-08-25T06:32:00.105Z,9.719625
2022-08-25T06:32:59.887Z,9.719655
2022-08-25T06:33:59.880Z,9.719718
2022-08-25T06:34:59.869Z,9.719674
2022-08-25T06:35:59.859Z,9.719677
2022-08-25T06:36:59.862Z,9.719632
2022-08-25T06:37:59.893Z,9.719660
2022-08-25T06:38:59.824Z,9.719720
2022-08-25T06:39:59.879Z,9.719679
2022-08-25T06:40:59.811Z,9.719650
2022-08-25T06:41:59.830Z,9.719646
2022-08-25T06:42:59.791Z,9.719625
2022-08-25T06:44:05.044Z,9.719664
2022-08-25T06:45:00.770Z,9.719655
2022-08-25T06:45:59.767Z,9.719657
2022-08-25T06:46:59.821Z,9.719667
2022-08-25T06:47:59.787Z,9.719678
2022-08-25T06:48:59.748Z,9.719664
2022-08-25T06:49:59.740Z,9.719662
2022-08-25T06:50:59.717Z,9.719663
2022-08-25T06:51:59.722Z,9.719646
2022-08-25T06:52:59.723Z,9.719657
2022-08-25T06:53:59.707Z,9.719631
2022-08-25T06:54:59.682Z,9.719653
2022-08-25T06:56:03.352Z,9.719649
2022-08-25T06:57:00.699Z,9.719646
2022-08-25T06:57:59.674Z,9.719647
2022-08-25T06:58:59.642Z,9.719631
2022-08-25T06:59:59.706Z,9.719651
2022-08-25T07:00:59.675Z,9.719725
2022-08-25T07:01:59.643Z,9.719707
2022-08-25T07:02:59.617Z,9.719668
2022-08-25T07:03:59.604Z,9.719625
2022-08-25T07:04:59.587Z,9.719681
2022-08-25T07:05:59.625Z,9.719662
2022-08-25T07:06:59.567Z,9.719681
2022-08-25T07:07:59.629Z,9.719614
2022-08-25T07:08:59.550Z,9.719590
2022-08-25T07:09:59.542Z,9.719633
2022-08-25T07:10:59.536Z,9.719661
2022-08-25T07:11:59.525Z,9.719647
2022-08-25T07:12:59.531Z,9.719630
2022-08-25T07:13:59.501Z,9.719652
2022-08-25T07:15:17.229Z,9.719638
2022-08-25T07:16:00.592Z,9.719735
2022-08-25T07:16:59.501Z,9.719715
2022-08-25T07:17:59.480Z,9.719666
2022-08-25T07:19:00.209Z,9.719698
2022-08-25T07:19:59.442Z,9.719556
2022-08-25T07:20:59.434Z,9.719543
2022-08-25T07:21:59.422Z,9.719669
2022-08-25T07:22:59.599Z,9.719775
2022-08-25T07:23:59.401Z,9.719532
2022-08-25T07:24:59.400Z,9.719608
2022-08-25T07:25:59.379Z,9.719624
2022-08-25T07:26:59.375Z,9.719689
2022-08-25T07:27:59.379Z,9.719563
2022-08-25T07:28:59.592Z,9.719579
2022-08-25T07:29:59.347Z,9.719644
2022-08-25T07:30:59.352Z,9.719650
2022-08-25T07:31:59.320Z,9.719707
2022-08-25T07:33:00.768Z,9.719643
2022-08-25T07:33:59.309Z,9.719584
2022-08-25T07:34:59.303Z,9.719770
2022-08-25T07:35:59.287Z,9.719889
2022-08-25T07:36:59.278Z,9.719774
2022-08-25T07:37:59.280Z,9.719535
2022-08-25T07:38:59.267Z,9.719553
2022-08-25T07:39:59.303Z,9.719559
2022-08-25T07:40:59.248Z,9.719672
2022-08-25T07:41:59.233Z,9.719700
2022-08-25T07:42:59.240Z,9.719610
2022-08-25T07:43:59.219Z,9.719504
2022-08-25T07:44:59.209Z,9.719557
2022-08-25T07:45:59.196Z,9.719612
2022-08-25T07:46:59.225Z,9.719638
2022-08-25T07:47:59.197Z,9.719645
2022-08-25T07:48:59.170Z,9.719679
2022-08-25T07:49:59.160Z,9.719653
2022-08-25T07:50:59.154Z,9.719595
2022-08-25T07:52:05.277Z,9.719608
2022-08-25T07:53:00.231Z,9.719620
2022-08-25T07:53:59.124Z,9.719624
2022-08-25T07:54:59.131Z,9.719677
2022-08-25T07:55:59.156Z,9.719666
2022-08-25T07:56:59.128Z,9.719672
2022-08-25T07:57:59.107Z,9.719653
2022-08-25T07:58:59.081Z,9.719645
2022-08-25T07:59:59.105Z,9.719612
2022-08-25T08:00:59.063Z,9.719631
2022-08-25T08:01:59.112Z,9.719612
2022-08-25T08:02:59.152Z,9.719646
2022-08-25T08:04:01.611Z,9.719677
2022-08-25T08:04:59.023Z,9.719654
2022-08-25T08:05:59.012Z,9.719685
2022-08-25T08:06:59.007Z,9.719677
2022-08-25T08:07:59.008Z,9.719645
2022-08-25T08:08:59.071Z,9.719685
2022-08-25T08:10:27.978Z,9.719732
2022-08-25T08:11:04.744Z,9.719656
2022-08-25T08:11:59.949Z,9.719651
2022-08-25T08:12:58.971Z,9.719665
2022-08-25T08:13:58.937Z,9.719626
2022-08-25T08:14:58.988Z,9.719607
2022-08-25T08:15:58.991Z,9.719677
2022-08-25T08:16:58.905Z,9.719687
2022-08-25T08:17:59.093Z,9.719714
2022-08-25T08:18:58.884Z,9.719698
2022-08-25T08:19:58.876Z,9.719646
2022-08-25T08:20:58.870Z,9.719641
2022-08-25T08:22:02.229Z,9.719652
2022-08-25T08:22:59.081Z,9.719677
2022-08-25T08:23:59.248Z,9.719663
2022-08-25T08:24:58.827Z,9.719666
2022-08-25T08:25:58.815Z,9.719595
2022-08-25T08:26:59.311Z,9.719672
2022-08-25T08:27:58.794Z,9.719640
2022-08-25T08:28:59.105Z,9.719621
2022-08-25T08:29:58.786Z,9.719605
2022-08-25T08:30:58.810Z,9.719603
2022-08-25T08:31:58.766Z,9.719620
2022-08-25T08:33:13.198Z,9.719617
2022-08-25T08:33:59.777Z,9.719631
2022-08-25T08:34:58.737Z,9.719635
2022-08-25T08:35:59.137Z,9.719622
2022-08-25T08:36:58.728Z,9.719615
2022-08-25T08:37:58.726Z,9.719634
2022-08-25T08:38:58.721Z,9.719626
2022-08-25T08:39:58.770Z,9.719599
2022-08-25T08:40:58.681Z,9.719623
2022-08-25T08:42:12.620Z,9.719661
2022-08-25T08:42:59.793Z,9.719727
2022-08-25T08:43:58.708Z,9.719635
2022-08-25T08:45:02.022Z,9.719723
2022-08-25T08:45:58.766Z,9.719666
2022-08-25T08:46:58.640Z,9.719662
2022-08-25T08:47:58.624Z,9.719656
2022-08-25T08:48:58.624Z,9.719674
2022-08-25T08:49:58.599Z,9.719688
2022-08-25T08:50:58.593Z,9.719698
2022-08-25T08:51:58.589Z,9.719591
2022-08-25T08:52:58.579Z,9.719595
2022-08-25T08:53:58.580Z,9.719642
2022-08-25T08:54:58.557Z,9.719710
2022-08-25T08:55:58.544Z,9.719712
2022-08-25T08:56:58.537Z,9.719680
2022-08-25T08:57:58.531Z,9.719737
2022-08-25T08:59:00.569Z,9.719716
2022-08-25T08:59:59.622Z,9.719717
2022-08-25T09:00:58.509Z,9.719624
2022-08-25T09:01:58.596Z,9.719557
2022-08-25T09:02:58.568Z,9.719640
2022-08-25T09:03:58.482Z,9.719694
2022-08-25T09:04:58.466Z,9.719698
2022-08-25T09:05:58.456Z,9.719671
2022-08-25T09:06:58.452Z,9.719660
2022-08-25T09:07:58.439Z,9.719645
2022-08-25T09:08:58.546Z,9.719635
2022-08-25T09:09:58.421Z,9.719628
2022-08-25T09:10:58.417Z,9.719620
2022-08-25T09:11:58.409Z,9.719627
2022-08-25T09:12:58.663Z,9.719628
2022-08-25T09:13:58.399Z,9.719640
2022-08-25T09:14:58.376Z,9.719684
2022-08-25T09:15:58.439Z,9.719707
2022-08-25T09:16:58.464Z,9.719613
2022-08-25T09:17:58.343Z,9.719612
2022-08-25T09:18:58.351Z,9.719736
2022-08-25T09:19:58.326Z,9.719679
2022-08-25T09:20:58.321Z,9.719753
2022-08-25T09:21:58.309Z,9.719695
2022-08-25T09:22:58.298Z,9.719718
2022-08-25T09:23:58.457Z,9.719701
2022-08-25T09:24:58.280Z,9.719675
2022-08-25T09:25:58.270Z,9.719660
2022-08-25T09:26:58.263Z,9.719654
2022-08-25T09:27:58.249Z,9.719662
2022-08-25T09:28:58.258Z,9.719653
2022-08-25T09:29:58.229Z,9.719636
2022-08-25T09:30:58.280Z,9.719610
2022-08-25T09:31:58.211Z,9.719626
2022-08-25T09:32:58.218Z,9.719670
2022-08-25T09:33:58.225Z,9.719673
2022-08-25T09:34:58.200Z,9.719670
2022-08-25T09:35:58.187Z,9.719656
2022-08-25T09:36:58.186Z,9.719673
2022-08-25T09:37:58.375Z,9.719651
2022-08-25T09:38:58.153Z,9.719686
2022-08-25T09:39:58.193Z,9.719719
2022-08-25T09:40:58.140Z,9.719719
2022-08-25T09:41:59.201Z,9.719803
2022-08-25T09:42:58.578Z,9.719756
2022-08-25T09:43:58.113Z,9.719660
2022-08-25T09:44:58.116Z,9.719687
2022-08-25T09:45:58.174Z,9.719672
2022-08-25T09:46:58.084Z,9.719716
2022-08-25T09:47:58.079Z,9.719640
2022-08-25T09:48:58.083Z,9.719513
2022-08-25T09:49:58.071Z,9.719598
2022-08-25T09:50:58.054Z,9.719600
2022-08-25T09:51:58.041Z,9.719589
2022-08-25T09:52:58.034Z,9.719625
2022-08-25T09:53:58.028Z,9.719637
2022-08-25T09:54:58.018Z,9.719652
2022-08-25T09:56:00.498Z,9.719644
2022-08-25T09:56:57.992Z,9.719643
2022-08-25T09:57:57.984Z,9.719648
2022-08-25T09:59:02.415Z,9.719619
2022-08-25T09:59:58.983Z,9.719584
2022-08-25T10:00:57.992Z,9.719612
2022-08-25T10:01:57.990Z,9.719650
2022-08-25T10:02:57.934Z,9.719755
2022-08-25T10:03:57.960Z,9.719717
2022-08-25T10:04:57.955Z,9.719712
2022-08-25T10:05:57.918Z,9.719682
2022-08-25T10:06:57.900Z,9.719671
2022-08-25T10:07:57.896Z,9.719679
2022-08-25T10:08:57.951Z,9.719657
2022-08-25T10:09:57.889Z,9.719621
2022-08-25T10:10:57.875Z,9.719575
2022-08-25T10:11:57.949Z,9.719581
2022-08-25T10:12:57.858Z,9.719658
2022-08-25T10:13:57.851Z,9.719623
2022-08-25T10:14:57.842Z,9.719651
2022-08-25T10:15:57.855Z,9.719640
2022-08-25T10:16:57.823Z,9.719657
2022-08-25T10:17:57.805Z,9.719709
2022-08-25T10:18:57.818Z,9.719673
2022-08-25T10:19:57.782Z,9.719650
2022-08-25T10:20:57.782Z,9.719646
2022-08-25T10:21:57.766Z,9.719631
2022-08-25T10:22:57.767Z,9.719624
2022-08-25T10:23:57.740Z,9.719656
2022-08-25T10:24:57.750Z,9.719666
2022-08-25T10:26:01.811Z,9.719657
2022-08-25T10:26:58.736Z,9.719654
2022-08-25T10:27:57.711Z,9.719663
2022-08-25T10:28:57.727Z,9.719659
2022-08-25T10:29:57.692Z,9.719660
2022-08-25T10:30:57.762Z,9.719603
2022-08-25T10:31:57.724Z,9.719640
2022-08-25T10:32:57.666Z,9.719660
2022-08-25T10:33:57.657Z,9.719692
2022-08-25T10:34:57.721Z,9.719710
2022-08-25T10:35:57.638Z,9.719698
2022-08-25T10:36:57.668Z,9.719697
2022-08-25T10:37:57.625Z,9.719719
2022-08-25T10:38:57.630Z,9.719719
2022-08-25T10:39:57.647Z,9.719713
2022-08-25T10:40:57.593Z,9.719704
2022-08-25T10:41:57.585Z,9.719678
2022-08-25T10:42:57.583Z,9.719666
2022-08-25T10:43:58.593Z,9.719680
2022-08-25T10:44:57.561Z,9.719714
2022-08-25T10:45:57.596Z,9.719725
2022-08-25T10:46:57.546Z,9.719722
2022-08-25T10:47:57.534Z,9.719632
2022-08-25T10:48:57.540Z,9.719699
2022-08-25T10:49:57.515Z,9.719699
2022-08-25T10:50:57.503Z,9.719807
2022-08-25T10:51:57.644Z,9.719791
2022-08-25T10:52:57.488Z,9.719714
2022-08-25T10:53:57.489Z,9.719641
2022-08-25T10:54:57.468Z,9.719755
2022-08-25T10:55:57.457Z,9.719798
2022-08-25T10:57:01.517Z,9.719727
2022-08-25T10:57:57.438Z,9.719652
2022-08-25T10:58:57.506Z,9.719915
2022-08-25T10:59:57.419Z,9.719796
2022-08-25T11:00:57.593Z,9.719736
2022-08-25T11:01:57.578Z,9.719777
2022-08-25T11:02:57.440Z,9.719791
2022-08-25T11:03:57.469Z,9.719770
2022-08-25T11:04:57.421Z,9.719746
2022-08-25T11:05:57.374Z,9.719727
2022-08-25T11:06:57.362Z,9.719736
2022-08-25T11:07:57.355Z,9.719757
2022-08-25T11:08:57.369Z,9.719740
2022-08-25T11:09:57.352Z,9.719743
2022-08-25T11:10:57.320Z,9.719729
2022-08-25T11:11:57.316Z,9.719678
2022-08-25T11:12:57.307Z,9.719616
2022-08-25T11:13:57.309Z,9.719732
2022-08-25T11:14:57.286Z,9.719666
2022-08-25T11:16:16.583Z,9.719677
2022-08-25T11:16:58.305Z,9.719754
2022-08-25T11:17:57.262Z,9.719803
2022-08-25T11:18:57.269Z,9.719826
2022-08-25T11:19:57.246Z,9.719708
2022-08-25T11:20:57.231Z,9.719785
2022-08-25T11:21:57.225Z,9.719826
2022-08-25T11:22:57.212Z,9.719805
2022-08-25T11:23:57.224Z,9.719768
2022-08-25T11:24:57.266Z,9.719708
2022-08-25T11:25:57.186Z,9.719665
2022-08-25T11:26:57.175Z,9.719685
2022-08-25T11:27:57.170Z,9.719702
2022-08-25T11:28:57.177Z,9.719710
2022-08-25T11:29:57.149Z,9.719699
2022-08-25T11:30:57.231Z,9.719618
2022-08-25T11:31:57.131Z,9.719594
2022-08-25T11:32:57.177Z,9.719547
2022-08-25T11:33:57.103Z,9.719628
2022-08-25T11:34:57.117Z,9.719649
2022-08-25T11:35:57.093Z,9.719640
2022-08-25T11:36:57.082Z,9.719647
2022-08-25T11:37:57.070Z,9.719666
2022-08-25T11:38:57.069Z,9.719650
2022-08-25T11:39:57.092Z,9.719643
2022-08-25T11:40:57.040Z,9.719636
2022-08-25T11:41:57.032Z,9.719615
2022-08-25T11:42:57.024Z,9.719595
2022-08-25T11:43:57.020Z,9.719604